Terminal Aerodrome Forecast
Issued by NWS Twin Cities, MN

Home | Current Version | Previous Version | Graphics & Text | Print | Product List | Glossary On
Versions: 1 2 3 4 5 6 7 8 9 10 11 12 13 14 15 16 17 18 19 20 21
000
FTUS43 KMPX 151139
TAFSTC
TAF
KSTC 151139Z 1512/1612 30013KT P6SM BKN080
     FM151300 31013G23KT P6SM OVC015
     FM151700 31020G28KT P6SM OVC022
     FM160200 32012KT P6SM SCT022
     FM160800 VRB03KT P6SM SCT250=

USA.gov is the U.S. government's official web portal to all federal, state and local government web resources and services.